sensor_id;sensor_type;location;lat;lon;timestamp;temperature;humidity
5802;DHT22;2927;49.366;8.530;2022-07-25T00:02:09;24.20;99.90
5802;DHT22;2927;49.366;8.530;2022-07-25T00:04:34;24.20;99.90
5802;DHT22;2927;49.366;8.530;2022-07-25T00:07:00;24.20;99.90
5802;DHT22;2927;49.366;8.530;2022-07-25T00:09:25;24.20;1.00
5802;DHT22;2927;49.366;8.530;2022-07-25T00:11:51;24.20;99.90
5802;DHT22;2927;49.366;8.530;2022-07-25T00:14:16;24.20;1.00
5802;DHT22;2927;49.366;8.530;2022-07-25T00:16:42;24.20;1.00
5802;DHT22;2927;49.366;8.530;2022-07-25T00:19:07;24.20;1.00
5802;DHT22;2927;49.366;8.530;2022-07-25T00:21:33;24.30;99.90
5802;DHT22;2927;49.366;8.530;2022-07-25T00:23:58;24.20;1.00
5802;DHT22;2927;49.366;8.530;2022-07-25T00:26:24;24.30;1.00
5802;DHT22;2927;49.366;8.530;2022-07-25T00:28:49;24.30;1.00
5802;DHT22;2927;49.366;8.530;2022-07-25T00:31:15;24.20;1.00
5802;DHT22;2927;49.366;8.530;2022-07-25T00:33:40;24.30;99.90
5802;DHT22;2927;49.366;8.530;2022-07-25T00:36:07;24.10;99.90
5802;DHT22;2927;49.366;8.530;2022-07-25T00:38:33;24.20;1.00
5802;DHT22;2927;49.366;8.530;2022-07-25T00:40:59;24.20;99.90
5802;DHT22;2927;49.366;8.530;2022-07-25T00:43:24;24.20;99.90
5802;DHT22;2927;49.366;8.530;2022-07-25T00:45:50;24.10;99.90
5802;DHT22;2927;49.366;8.530;2022-07-25T00:48:15;24.10;1.00
5802;DHT22;2927;49.366;8.530;2022-07-25T00:50:41;24.10;1.00
5802;DHT22;2927;49.366;8.530;2022-07-25T00:53:08;24.00;99.90
5802;DHT22;2927;49.366;8.530;2022-07-25T00:55:33;23.70;1.00
5802;DHT22;2927;49.366;8.530;2022-07-25T00:57:59;23.70;1.00
5802;DHT22;2927;49.366;8.530;2022-07-25T01:00:24;23.60;99.90
5802;DHT22;2927;49.366;8.530;2022-07-25T01:02:50;23.60;99.90
5802;DHT22;2927;49.366;8.530;2022-07-25T01:05:16;23.60;99.90
5802;DHT22;2927;49.366;8.530;2022-07-25T01:07:41;23.50;1.00
5802;DHT22;2927;49.366;8.530;2022-07-25T01:10:07;23.50;1.00
5802;DHT22;2927;49.366;8.530;2022-07-25T01:12:53;23.50;1.00
5802;DHT22;2927;49.366;8.530;2022-07-25T01:15:21;23.50;99.90
5802;DHT22;2927;49.366;8.530;2022-07-25T01:17:47;23.70;99.90
5802;DHT22;2927;49.366;8.530;2022-07-25T01:20:25;23.80;1.00
5802;DHT22;2927;49.366;8.530;2022-07-25T01:22:51;23.70;1.00
5802;DHT22;2927;49.366;8.530;2022-07-25T01:25:17;23.70;83.30
5802;DHT22;2927;49.366;8.530;2022-07-25T01:27:44;23.60;99.90
5802;DHT22;2927;49.366;8.530;2022-07-25T01:30:12;23.70;99.90
5802;DHT22;2927;49.366;8.530;2022-07-25T01:32:38;23.70;1.00
5802;DHT22;2927;49.366;8.530;2022-07-25T01:35:04;23.70;99.90
5802;DHT22;2927;49.366;8.530;2022-07-25T01:37:30;23.70;99.90
5802;DHT22;2927;49.366;8.530;2022-07-25T01:39:56;23.70;1.00
5802;DHT22;2927;49.366;8.530;2022-07-25T01:42:22;23.60;99.90
5802;DHT22;2927;49.366;8.530;2022-07-25T01:44:48;23.40;99.90
5802;DHT22;2927;49.366;8.530;2022-07-25T01:47:13;23.40;1.00
5802;DHT22;2927;49.366;8.530;2022-07-25T01:49:39;23.30;99.90
5802;DHT22;2927;49.366;8.530;2022-07-25T01:52:05;23.30;1.00
5802;DHT22;2927;49.366;8.530;2022-07-25T01:54:30;23.30;1.00
5802;DHT22;2927;49.366;8.530;2022-07-25T01:56:56;23.20;99.90
5802;DHT22;2927;49.366;8.530;2022-07-25T01:59:22;23.20;1.00
5802;DHT22;2927;49.366;8.530;2022-07-25T02:01:47;23.10;1.00
5802;DHT22;2927;49.366;8.530;2022-07-25T02:04:13;23.10;99.90
5802;DHT22;2927;49.366;8.530;2022-07-25T02:06:39;23.00;1.00
5802;DHT22;2927;49.366;8.530;2022-07-25T02:09:06;23.00;96.70
5802;DHT22;2927;49.366;8.530;2022-07-25T02:11:32;23.10;99.90
5802;DHT22;2927;49.366;8.530;2022-07-25T02:13:57;23.00;99.90
5802;DHT22;2927;49.366;8.530;2022-07-25T02:16:23;22.90;99.90
5802;DHT22;2927;49.366;8.530;2022-07-25T02:18:48;22.90;99.90
5802;DHT22;2927;49.366;8.530;2022-07-25T02:21:14;22.80;99.90
5802;DHT22;2927;49.366;8.530;2022-07-25T02:23:40;22.70;1.00
5802;DHT22;2927;49.366;8.530;2022-07-25T02:26:05;22.70;99.90
5802;DHT22;2927;49.366;8.530;2022-07-25T02:28:31;22.70;1.00
5802;DHT22;2927;49.366;8.530;2022-07-25T02:30:56;22.70;99.90
5802;DHT22;2927;49.366;8.530;2022-07-25T02:33:22;22.70;1.00
5802;DHT22;2927;49.366;8.530;2022-07-25T02:35:47;22.80;1.00
5802;DHT22;2927;49.366;8.530;2022-07-25T02:38:13;22.70;1.00
5802;DHT22;2927;49.366;8.530;2022-07-25T02:40:47;22.80;1.00
5802;DHT22;2927;49.366;8.530;2022-07-25T02:43:14;22.80;99.90
5802;DHT22;2927;49.366;8.530;2022-07-25T02:45:39;22.80;99.90
5802;DHT22;2927;49.366;8.530;2022-07-25T02:48:05;22.70;99.90
5802;DHT22;2927;49.366;8.530;2022-07-25T02:50:30;22.70;99.90
5802;DHT22;2927;49.366;8.530;2022-07-25T02:52:56;22.70;1.00
5802;DHT22;2927;49.366;8.530;2022-07-25T02:55:21;22.70;1.00
5802;DHT22;2927;49.366;8.530;2022-07-25T02:57:47;22.70;1.00
5802;DHT22;2927;49.366;8.530;2022-07-25T03:00:13;22.70;1.00
5802;DHT22;2927;49.366;8.530;2022-07-25T03:02:39;22.60;1.00
5802;DHT22;2927;49.366;8.530;2022-07-25T03:05:06;22.60;1.00
5802;DHT22;2927;49.366;8.530;2022-07-25T03:07:32;22.60;1.00
5802;DHT22;2927;49.366;8.530;2022-07-25T03:09:58;22.60;1.00
5802;DHT22;2927;49.366;8.530;2022-07-25T03:12:23;22.40;1.00
5802;DHT22;2927;49.366;8.530;2022-07-25T03:14:49;22.50;1.00
5802;DHT22;2927;49.366;8.530;2022-07-25T03:17:14;22.50;1.00
5802;DHT22;2927;49.366;8.530;2022-07-25T03:19:40;22.20;1.00
5802;DHT22;2927;49.366;8.530;2022-07-25T03:22:05;22.40;1.00
5802;DHT22;2927;49.366;8.530;2022-07-25T03:24:31;22.30;1.00
5802;DHT22;2927;49.366;8.530;2022-07-25T03:26:57;22.20;1.00
5802;DHT22;2927;49.366;8.530;2022-07-25T03:29:22;22.20;1.00
5802;DHT22;2927;49.366;8.530;2022-07-25T03:31:48;22.30;1.00
5802;DHT22;2927;49.366;8.530;2022-07-25T03:34:13;22.30;1.00
5802;DHT22;2927;49.366;8.530;2022-07-25T03:36:39;22.30;1.00
5802;DHT22;2927;49.366;8.530;2022-07-25T03:39:04;22.40;1.00
5802;DHT22;2927;49.366;8.530;2022-07-25T03:41:30;22.40;99.90
5802;DHT22;2927;49.366;8.530;2022-07-25T03:43:55;22.40;99.90
5802;DHT22;2927;49.366;8.530;2022-07-25T03:46:21;22.40;99.90
5802;DHT22;2927;49.366;8.530;2022-07-25T03:48:47;22.40;99.90
5802;DHT22;2927;49.366;8.530;2022-07-25T03:51:12;22.40;99.90
5802;DHT22;2927;49.366;8.530;2022-07-25T03:53:38;22.40;99.90
5802;DHT22;2927;49.366;8.530;2022-07-25T03:56:22;22.40;99.90
5802;DHT22;2927;49.366;8.530;2022-07-25T03:58:48;22.30;99.90
5802;DHT22;2927;49.366;8.530;2022-07-25T04:01:13;22.30;99.90
5802;DHT22;2927;49.366;8.530;2022-07-25T04:03:39;22.30;99.90
5802;DHT22;2927;49.366;8.530;2022-07-25T04:06:04;22.30;99.90
5802;DHT22;2927;49.366;8.530;2022-07-25T04:08:30;22.20;1.00
5802;DHT22;2927;49.366;8.530;2022-07-25T04:10:55;22.10;1.00
5802;DHT22;2927;49.366;8.530;2022-07-25T04:13:21;22.00;1.00
5802;DHT22;2927;49.366;8.530;2022-07-25T04:15:46;22.00;1.00
5802;DHT22;2927;49.366;8.530;2022-07-25T04:18:12;22.10;1.00
5802;DHT22;2927;49.366;8.530;2022-07-25T04:20:37;22.20;1.00
5802;DHT22;2927;49.366;8.530;2022-07-25T04:23:03;22.30;1.00
5802;DHT22;2927;49.366;8.530;2022-07-25T04:25:28;22.30;1.00
5802;DHT22;2927;49.366;8.530;2022-07-25T04:27:55;22.40;1.00
5802;DHT22;2927;49.366;8.530;2022-07-25T04:30:21;22.50;1.00
5802;DHT22;2927;49.366;8.530;2022-07-25T04:32:46;22.60;1.00
5802;DHT22;2927;49.366;8.530;2022-07-25T04:35:12;22.60;99.90
5802;DHT22;2927;49.366;8.530;2022-07-25T04:37:37;22.60;99.90
5802;DHT22;2927;49.366;8.530;2022-07-25T04:40:04;22.70;99.90
5802;DHT22;2927;49.366;8.530;2022-07-25T04:42:30;22.70;99.90
5802;DHT22;2927;49.366;8.530;2022-07-25T04:44:55;22.70;99.90
5802;DHT22;2927;49.366;8.530;2022-07-25T04:47:21;22.80;99.90
5802;DHT22;2927;49.366;8.530;2022-07-25T04:49:46;22.80;99.90
5802;DHT22;2927;49.366;8.530;2022-07-25T04:52:12;22.80;99.90
5802;DHT22;2927;49.366;8.530;2022-07-25T04:54:37;22.80;99.90
5802;DHT22;2927;49.366;8.530;2022-07-25T04:57:03;22.90;99.90
5802;DHT22;2927;49.366;8.530;2022-07-25T04:59:29;22.90;99.90
5802;DHT22;2927;49.366;8.530;2022-07-25T05:01:55;23.00;99.90
5802;DHT22;2927;49.366;8.530;2022-07-25T05:04:21;23.10;99.90
5802;DHT22;2927;49.366;8.530;2022-07-25T05:06:46;23.10;99.90
5802;DHT22;2927;49.366;8.530;2022-07-25T05:09:12;23.20;99.90
5802;DHT22;2927;49.366;8.530;2022-07-25T05:11:37;23.20;99.90
5802;DHT22;2927;49.366;8.530;2022-07-25T05:14:03;23.30;99.90
5802;DHT22;2927;49.366;8.530;2022-07-25T05:16:28;23.30;99.90
5802;DHT22;2927;49.366;8.530;2022-07-25T05:18:54;23.40;99.90
5802;DHT22;2927;49.366;8.530;2022-07-25T05:21:20;23.40;99.90
5802;DHT22;2927;49.366;8.530;2022-07-25T05:23:45;23.50;99.90
5802;DHT22;2927;49.366;8.530;2022-07-25T05:26:11;23.60;49.10
5802;DHT22;2927;49.366;8.530;2022-07-25T05:28:36;23.70;1.00
5802;DHT22;2927;49.366;8.530;2022-07-25T05:31:02;23.70;1.00
5802;DHT22;2927;49.366;8.530;2022-07-25T05:33:28;23.80;1.00
5802;DHT22;2927;49.366;8.530;2022-07-25T05:35:53;23.90;1.00
5802;DHT22;2927;49.366;8.530;2022-07-25T05:38:19;23.90;1.00
5802;DHT22;2927;49.366;8.530;2022-07-25T05:40:44;24.00;1.00
5802;DHT22;2927;49.366;8.530;2022-07-25T05:43:10;24.10;1.00
5802;DHT22;2927;49.366;8.530;2022-07-25T05:45:36;24.20;1.00
5802;DHT22;2927;49.366;8.530;2022-07-25T05:48:01;24.30;1.00
5802;DHT22;2927;49.366;8.530;2022-07-25T05:50:27;24.30;1.00
5802;DHT22;2927;49.366;8.530;2022-07-25T05:52:52;24.30;1.00
5802;DHT22;2927;49.366;8.530;2022-07-25T05:55:18;24.40;1.00
5802;DHT22;2927;49.366;8.530;2022-07-25T05:57:44;24.50;1.00
5802;DHT22;2927;49.366;8.530;2022-07-25T06:00:10;24.80;1.00
5802;DHT22;2927;49.366;8.530;2022-07-25T06:02:35;25.00;1.00
5802;DHT22;2927;49.366;8.530;2022-07-25T06:05:01;25.20;99.90
5802;DHT22;2927;49.366;8.530;2022-07-25T06:07:26;25.50;99.90
5802;DHT22;2927;49.366;8.530;2022-07-25T06:09:52;25.70;99.90
5802;DHT22;2927;49.366;8.530;2022-07-25T06:12:17;26.00;99.90
5802;DHT22;2927;49.366;8.530;2022-07-25T06:14:43;25.90;99.90
5802;DHT22;2927;49.366;8.530;2022-07-25T06:17:08;26.00;99.90
5802;DHT22;2927;49.366;8.530;2022-07-25T06:19:34;26.10;99.90
5802;DHT22;2927;49.366;8.530;2022-07-25T06:21:59;26.00;99.90
5802;DHT22;2927;49.366;8.530;2022-07-25T06:24:25;25.90;99.90
5802;DHT22;2927;49.366;8.530;2022-07-25T06:26:50;25.80;99.90
5802;DHT22;2927;49.366;8.530;2022-07-25T06:29:16;25.70;99.90
5802;DHT22;2927;49.366;8.530;2022-07-25T06:31:41;25.60;99.90
5802;DHT22;2927;49.366;8.530;2022-07-25T06:34:07;25.80;99.90
5802;DHT22;2927;49.366;8.530;2022-07-25T06:36:33;25.90;99.90
5802;DHT22;2927;49.366;8.530;2022-07-25T06:38:59;26.00;99.90
5802;DHT22;2927;49.366;8.530;2022-07-25T06:41:24;26.00;99.90
5802;DHT22;2927;49.366;8.530;2022-07-25T06:43:50;26.00;99.90
5802;DHT22;2927;49.366;8.530;2022-07-25T06:46:15;26.00;99.90
5802;DHT22;2927;49.366;8.530;2022-07-25T06:48:41;26.20;99.90
5802;DHT22;2927;49.366;8.530;2022-07-25T06:51:06;26.70;25.90
5802;DHT22;2927;49.366;8.530;2022-07-25T06:53:32;26.90;1.00
5802;DHT22;2927;49.366;8.530;2022-07-25T06:55:58;26.90;1.00
5802;DHT22;2927;49.366;8.530;2022-07-25T06:58:23;27.30;1.00
5802;DHT22;2927;49.366;8.530;2022-07-25T07:00:49;27.30;1.00
5802;DHT22;2927;49.366;8.530;2022-07-25T07:03:14;27.20;1.00
5802;DHT22;2927;49.366;8.530;2022-07-25T07:05:40;27.50;1.00
5802;DHT22;2927;49.366;8.530;2022-07-25T07:08:06;27.40;1.00
5802;DHT22;2927;49.366;8.530;2022-07-25T07:10:31;27.40;1.00
5802;DHT22;2927;49.366;8.530;2022-07-25T07:13:05;27.50;1.00
5802;DHT22;2927;49.366;8.530;2022-07-25T07:15:31;27.50;1.00
5802;DHT22;2927;49.366;8.530;2022-07-25T07:17:56;27.70;1.00
5802;DHT22;2927;49.366;8.530;2022-07-25T07:20:22;27.80;1.00
5802;DHT22;2927;49.366;8.530;2022-07-25T07:22:48;27.50;1.00
5802;DHT22;2927;49.366;8.530;2022-07-25T07:25:15;27.70;1.00
5802;DHT22;2927;49.366;8.530;2022-07-25T07:27:42;27.90;1.00
5802;DHT22;2927;49.366;8.530;2022-07-25T07:30:08;27.80;1.00
5802;DHT22;2927;49.366;8.530;2022-07-25T07:32:33;27.80;1.00
5802;DHT22;2927;49.366;8.530;2022-07-25T07:34:59;28.00;1.00
5802;DHT22;2927;49.366;8.530;2022-07-25T07:37:24;28.20;1.00
5802;DHT22;2927;49.366;8.530;2022-07-25T07:39:50;28.30;1.00
5802;DHT22;2927;49.366;8.530;2022-07-25T07:42:15;28.00;1.00
5802;DHT22;2927;49.366;8.530;2022-07-25T07:44:41;28.00;1.00
5802;DHT22;2927;49.366;8.530;2022-07-25T07:47:06;28.30;1.00
5802;DHT22;2927;49.366;8.530;2022-07-25T07:49:32;28.60;1.00
5802;DHT22;2927;49.366;8.530;2022-07-25T07:51:57;28.90;1.00
5802;DHT22;2927;49.366;8.530;2022-07-25T07:54:23;28.80;1.00
5802;DHT22;2927;49.366;8.530;2022-07-25T07:57:07;28.70;1.00
5802;DHT22;2927;49.366;8.530;2022-07-25T07:59:32;28.80;1.00
5802;DHT22;2927;49.366;8.530;2022-07-25T08:01:58;28.90;1.00
5802;DHT22;2927;49.366;8.530;2022-07-25T08:04:23;28.80;1.00
5802;DHT22;2927;49.366;8.530;2022-07-25T08:06:49;29.00;1.00
5802;DHT22;2927;49.366;8.530;2022-07-25T08:09:14;29.10;1.00
5802;DHT22;2927;49.366;8.530;2022-07-25T08:11:40;28.70;1.00
5802;DHT22;2927;49.366;8.530;2022-07-25T08:14:05;28.70;1.00
5802;DHT22;2927;49.366;8.530;2022-07-25T08:16:32;29.20;1.00
5802;DHT22;2927;49.366;8.530;2022-07-25T08:18:57;29.20;1.00
5802;DHT22;2927;49.366;8.530;2022-07-25T08:21:23;29.70;1.00
5802;DHT22;2927;49.366;8.530;2022-07-25T08:23:49;29.80;1.00
5802;DHT22;2927;49.366;8.530;2022-07-25T08:26:14;29.60;1.00
5802;DHT22;2927;49.366;8.530;2022-07-25T08:28:40;29.70;1.00
5802;DHT22;2927;49.366;8.530;2022-07-25T08:31:06;29.80;1.00
5802;DHT22;2927;49.366;8.530;2022-07-25T08:33:32;29.50;1.00
5802;DHT22;2927;49.366;8.530;2022-07-25T08:35:57;29.50;1.00
5802;DHT22;2927;49.366;8.530;2022-07-25T08:38:25;29.40;1.00
5802;DHT22;2927;49.366;8.530;2022-07-25T08:40:51;29.60;1.00
5802;DHT22;2927;49.366;8.530;2022-07-25T08:43:17;30.10;1.00
5802;DHT22;2927;49.366;8.530;2022-07-25T08:48:10;30.20;1.00
5802;DHT22;2927;49.366;8.530;2022-07-25T08:50:37;30.30;1.00
5802;DHT22;2927;49.366;8.530;2022-07-25T08:53:03;30.20;1.00
5802;DHT22;2927;49.366;8.530;2022-07-25T08:55:29;30.30;1.00
5802;DHT22;2927;49.366;8.530;2022-07-25T08:57:54;30.10;1.00
5802;DHT22;2927;49.366;8.530;2022-07-25T09:00:26;30.20;1.00
5802;DHT22;2927;49.366;8.530;2022-07-25T09:03:03;30.10;1.00
5802;DHT22;2927;49.366;8.530;2022-07-25T09:05:33;30.20;1.00
5802;DHT22;2927;49.366;8.530;2022-07-25T09:08:11;30.90;1.00
5802;DHT22;2927;49.366;8.530;2022-07-25T09:10:37;30.80;1.00
5802;DHT22;2927;49.366;8.530;2022-07-25T09:13:06;30.70;1.00
5802;DHT22;2927;49.366;8.530;2022-07-25T09:15:40;30.80;1.00
5802;DHT22;2927;49.366;8.530;2022-07-25T09:18:10;30.80;1.00
5802;DHT22;2927;49.366;8.530;2022-07-25T09:20:47;31.00;1.00
5802;DHT22;2927;49.366;8.530;2022-07-25T09:23:31;31.30;1.00
5802;DHT22;2927;49.366;8.530;2022-07-25T09:26:15;31.10;1.00
5802;DHT22;2927;49.366;8.530;2022-07-25T09:28:45;32.00;1.00
5802;DHT22;2927;49.366;8.530;2022-07-25T09:31:12;31.90;1.00
5802;DHT22;2927;49.366;8.530;2022-07-25T09:33:46;31.80;1.00
5802;DHT22;2927;49.366;8.530;2022-07-25T09:36:12;31.80;1.00
5802;DHT22;2927;49.366;8.530;2022-07-25T09:38:38;31.90;1.00
5802;DHT22;2927;49.366;8.530;2022-07-25T09:41:03;32.10;1.00
5802;DHT22;2927;49.366;8.530;2022-07-25T09:43:36;32.10;1.00
5802;DHT22;2927;49.366;8.530;2022-07-25T09:46:02;32.20;1.00
5802;DHT22;2927;49.366;8.530;2022-07-25T09:48:27;32.20;1.00
5802;DHT22;2927;49.366;8.530;2022-07-25T09:50:53;32.20;1.00
5802;DHT22;2927;49.366;8.530;2022-07-25T09:53:19;32.40;1.00
5802;DHT22;2927;49.366;8.530;2022-07-25T09:55:45;32.30;99.90
5802;DHT22;2927;49.366;8.530;2022-07-25T09:58:12;32.30;1.00
5802;DHT22;2927;49.366;8.530;2022-07-25T10:00:39;32.50;99.90
5802;DHT22;2927;49.366;8.530;2022-07-25T10:06:05;32.90;99.90
5802;DHT22;2927;49.366;8.530;2022-07-25T10:08:39;33.20;99.90
5802;DHT22;2927;49.366;8.530;2022-07-25T10:11:16;33.20;99.90
5802;DHT22;2927;49.366;8.530;2022-07-25T10:13:42;33.60;99.90
5802;DHT22;2927;49.366;8.530;2022-07-25T10:16:18;33.90;99.90
5802;DHT22;2927;49.366;8.530;2022-07-25T10:18:55;34.00;99.90
5802;DHT22;2927;49.366;8.530;2022-07-25T10:21:23;33.70;99.90
5802;DHT22;2927;49.366;8.530;2022-07-25T10:24:03;33.50;99.90
5802;DHT22;2927;49.366;8.530;2022-07-25T10:26:30;33.30;99.90
5802;DHT22;2927;49.366;8.530;2022-07-25T10:28:56;33.20;99.90
5802;DHT22;2927;49.366;8.530;2022-07-25T10:31:25;33.10;99.90
5802;DHT22;2927;49.366;8.530;2022-07-25T10:33:58;32.90;99.90
5802;DHT22;2927;49.366;8.530;2022-07-25T10:36:27;33.00;99.90
5802;DHT22;2927;49.366;8.530;2022-07-25T10:38:59;33.30;99.90
5802;DHT22;2927;49.366;8.530;2022-07-25T10:41:27;33.30;99.90
5802;DHT22;2927;49.366;8.530;2022-07-25T10:43:58;33.50;99.90
5802;DHT22;2927;49.366;8.530;2022-07-25T10:46:26;33.50;99.90
5802;DHT22;2927;49.366;8.530;2022-07-25T10:49:06;33.40;99.90
5802;DHT22;2927;49.366;8.530;2022-07-25T10:51:34;33.50;99.90
5802;DHT22;2927;49.366;8.530;2022-07-25T10:54:14;33.50;99.90
5802;DHT22;2927;49.366;8.530;2022-07-25T10:56:56;33.50;99.90
5802;DHT22;2927;49.366;8.530;2022-07-25T10:59:33;33.60;99.90
5802;DHT22;2927;49.366;8.530;2022-07-25T11:01:59;33.40;99.90
5802;DHT22;2927;49.366;8.530;2022-07-25T11:04:25;33.40;99.90
5802;DHT22;2927;49.366;8.530;2022-07-25T11:06:52;33.40;99.90
5802;DHT22;2927;49.366;8.530;2022-07-25T11:09:27;33.60;99.90
5802;DHT22;2927;49.366;8.530;2022-07-25T11:11:57;33.60;99.90
5802;DHT22;2927;49.366;8.530;2022-07-25T11:14:28;33.50;99.90
5802;DHT22;2927;49.366;8.530;2022-07-25T11:17:09;33.40;99.90
5802;DHT22;2927;49.366;8.530;2022-07-25T11:19:35;33.70;99.90
5802;DHT22;2927;49.366;8.530;2022-07-25T11:22:01;33.90;99.90
5802;DHT22;2927;49.366;8.530;2022-07-25T11:27:01;33.60;99.90
5802;DHT22;2927;49.366;8.530;2022-07-25T11:29:27;33.90;99.90
5802;DHT22;2927;49.366;8.530;2022-07-25T11:34:21;33.70;99.90
5802;DHT22;2927;49.366;8.530;2022-07-25T11:36:49;33.80;99.90
5802;DHT22;2927;49.366;8.530;2022-07-25T11:39:15;33.80;99.90
5802;DHT22;2927;49.366;8.530;2022-07-25T11:41:42;34.00;99.90
5802;DHT22;2927;49.366;8.530;2022-07-25T11:44:08;34.00;99.90
5802;DHT22;2927;49.366;8.530;2022-07-25T11:46:43;34.00;99.90
5802;DHT22;2927;49.366;8.530;2022-07-25T11:49:09;33.70;99.90
5802;DHT22;2927;49.366;8.530;2022-07-25T11:51:37;33.60;99.90
5802;DHT22;2927;49.366;8.530;2022-07-25T11:54:09;33.50;99.90
5802;DHT22;2927;49.366;8.530;2022-07-25T11:56:39;33.50;99.90
5802;DHT22;2927;49.366;8.530;2022-07-25T11:59:05;33.70;99.90
5802;DHT22;2927;49.366;8.530;2022-07-25T12:01:35;33.90;99.90
5802;DHT22;2927;49.366;8.530;2022-07-25T12:04:27;34.10;99.90
5802;DHT22;2927;49.366;8.530;2022-07-25T12:07:02;34.00;99.90
5802;DHT22;2927;49.366;8.530;2022-07-25T12:09:29;34.00;99.90
5802;DHT22;2927;49.366;8.530;2022-07-25T12:12:01;34.00;99.90
5802;DHT22;2927;49.366;8.530;2022-07-25T12:14:27;34.00;99.90
5802;DHT22;2927;49.366;8.530;2022-07-25T12:16:53;34.20;99.90
5802;DHT22;2927;49.366;8.530;2022-07-25T12:19:20;34.00;99.90
5802;DHT22;2927;49.366;8.530;2022-07-25T12:21:46;34.20;99.90
5802;DHT22;2927;49.366;8.530;2022-07-25T12:24:12;34.20;99.90
5802;DHT22;2927;49.366;8.530;2022-07-25T12:26:37;34.50;99.90
5802;DHT22;2927;49.366;8.530;2022-07-25T12:29:03;34.90;99.90
5802;DHT22;2927;49.366;8.530;2022-07-25T12:31:29;35.20;99.90
5802;DHT22;2927;49.366;8.530;2022-07-25T12:33:54;35.20;99.90
5802;DHT22;2927;49.366;8.530;2022-07-25T12:36:20;35.20;99.90
5802;DHT22;2927;49.366;8.530;2022-07-25T12:38:45;35.30;99.90
5802;DHT22;2927;49.366;8.530;2022-07-25T12:41:11;35.30;99.90
5802;DHT22;2927;49.366;8.530;2022-07-25T12:43:37;35.30;99.90
5802;DHT22;2927;49.366;8.530;2022-07-25T12:46:04;35.40;99.90
5802;DHT22;2927;49.366;8.530;2022-07-25T12:48:30;35.40;99.90
5802;DHT22;2927;49.366;8.530;2022-07-25T12:50:55;35.40;99.90
5802;DHT22;2927;49.366;8.530;2022-07-25T12:53:21;35.40;99.90
5802;DHT22;2927;49.366;8.530;2022-07-25T12:55:46;35.80;99.90
5802;DHT22;2927;49.366;8.530;2022-07-25T12:58:12;35.70;99.90
5802;DHT22;2927;49.366;8.530;2022-07-25T13:00:39;35.50;99.90
5802;DHT22;2927;49.366;8.530;2022-07-25T13:03:05;35.30;99.90
5802;DHT22;2927;49.366;8.530;2022-07-25T13:05:30;35.20;99.90
5802;DHT22;2927;49.366;8.530;2022-07-25T13:07:56;35.20;99.90
5802;DHT22;2927;49.366;8.530;2022-07-25T13:10:21;35.10;99.90
5802;DHT22;2927;49.366;8.530;2022-07-25T13:12:47;35.20;99.90
5802;DHT22;2927;49.366;8.530;2022-07-25T13:15:12;34.90;99.90
5802;DHT22;2927;49.366;8.530;2022-07-25T13:17:38;34.80;99.90
5802;DHT22;2927;49.366;8.530;2022-07-25T13:20:05;34.70;99.90
5802;DHT22;2927;49.366;8.530;2022-07-25T13:22:31;34.60;99.90
5802;DHT22;2927;49.366;8.530;2022-07-25T13:24:56;34.70;99.90
5802;DHT22;2927;49.366;8.530;2022-07-25T13:27:22;34.50;99.90
5802;DHT22;2927;49.366;8.530;2022-07-25T13:29:48;34.50;99.90
5802;DHT22;2927;49.366;8.530;2022-07-25T13:32:21;34.30;99.90
5802;DHT22;2927;49.366;8.530;2022-07-25T13:34:46;34.20;99.90
5802;DHT22;2927;49.366;8.530;2022-07-25T13:37:12;34.30;99.90
5802;DHT22;2927;49.366;8.530;2022-07-25T13:39:37;34.30;99.90
5802;DHT22;2927;49.366;8.530;2022-07-25T13:42:04;34.20;99.90
5802;DHT22;2927;49.366;8.530;2022-07-25T13:44:30;34.20;99.90
5802;DHT22;2927;49.366;8.530;2022-07-25T13:46:55;34.10;99.90
5802;DHT22;2927;49.366;8.530;2022-07-25T13:49:23;34.10;99.90
5802;DHT22;2927;49.366;8.530;2022-07-25T13:51:48;33.90;99.90
5802;DHT22;2927;49.366;8.530;2022-07-25T13:54:14;33.70;99.90
5802;DHT22;2927;49.366;8.530;2022-07-25T13:56:40;33.60;99.90
5802;DHT22;2927;49.366;8.530;2022-07-25T13:59:06;33.60;99.90
5802;DHT22;2927;49.366;8.530;2022-07-25T14:01:33;33.30;99.90
5802;DHT22;2927;49.366;8.530;2022-07-25T14:03:59;33.20;99.90
5802;DHT22;2927;49.366;8.530;2022-07-25T14:06:24;33.20;99.90
5802;DHT22;2927;49.366;8.530;2022-07-25T14:08:50;33.20;99.90
5802;DHT22;2927;49.366;8.530;2022-07-25T14:11:15;33.40;99.90
5802;DHT22;2927;49.366;8.530;2022-07-25T14:13:41;33.60;99.90
5802;DHT22;2927;49.366;8.530;2022-07-25T14:16:07;33.90;99.90
5802;DHT22;2927;49.366;8.530;2022-07-25T14:18:33;34.20;99.90
5802;DHT22;2927;49.366;8.530;2022-07-25T14:20:59;34.20;99.90
5802;DHT22;2927;49.366;8.530;2022-07-25T14:23:25;34.10;99.90
5802;DHT22;2927;49.366;8.530;2022-07-25T14:25:51;33.90;99.90
5802;DHT22;2927;49.366;8.530;2022-07-25T14:28:16;33.30;99.90
5802;DHT22;2927;49.366;8.530;2022-07-25T14:30:42;33.20;99.90
5802;DHT22;2927;49.366;8.530;2022-07-25T14:33:07;33.50;99.90
5802;DHT22;2927;49.366;8.530;2022-07-25T14:35:33;33.60;99.90
5802;DHT22;2927;49.366;8.530;2022-07-25T14:37:59;33.80;99.90
5802;DHT22;2927;49.366;8.530;2022-07-25T14:40:25;33.90;99.90
5802;DHT22;2927;49.366;8.530;2022-07-25T14:42:51;34.00;99.90
5802;DHT22;2927;49.366;8.530;2022-07-25T14:45:16;34.20;99.90
5802;DHT22;2927;49.366;8.530;2022-07-25T14:47:43;34.30;99.90
5802;DHT22;2927;49.366;8.530;2022-07-25T14:50:09;34.30;99.90
5802;DHT22;2927;49.366;8.530;2022-07-25T14:52:35;34.70;99.90
5802;DHT22;2927;49.366;8.530;2022-07-25T14:55:01;35.40;99.90
5802;DHT22;2927;49.366;8.530;2022-07-25T14:57:26;35.40;99.90
5802;DHT22;2927;49.366;8.530;2022-07-25T14:59:52;35.50;99.90
5802;DHT22;2927;49.366;8.530;2022-07-25T15:02:17;35.40;99.90
5802;DHT22;2927;49.366;8.530;2022-07-25T15:04:43;36.00;99.90
5802;DHT22;2927;49.366;8.530;2022-07-25T15:07:09;35.90;99.90
5802;DHT22;2927;49.366;8.530;2022-07-25T15:09:34;35.80;99.90
5802;DHT22;2927;49.366;8.530;2022-07-25T15:12:00;35.40;99.90
5802;DHT22;2927;49.366;8.530;2022-07-25T15:14:25;35.10;99.90
5802;DHT22;2927;49.366;8.530;2022-07-25T15:16:51;34.80;99.90
5802;DHT22;2927;49.366;8.530;2022-07-25T15:19:17;34.50;99.90
5802;DHT22;2927;49.366;8.530;2022-07-25T15:21:43;34.30;99.90
5802;DHT22;2927;49.366;8.530;2022-07-25T15:24:09;34.50;99.90
5802;DHT22;2927;49.366;8.530;2022-07-25T15:26:35;34.50;99.90
5802;DHT22;2927;49.366;8.530;2022-07-25T15:29:01;34.70;99.90
5802;DHT22;2927;49.366;8.530;2022-07-25T15:31:26;34.60;99.90
5802;DHT22;2927;49.366;8.530;2022-07-25T15:33:52;34.50;99.90
5802;DHT22;2927;49.366;8.530;2022-07-25T15:36:18;34.30;99.90
5802;DHT22;2927;49.366;8.530;2022-07-25T15:38:44;34.50;99.90
5802;DHT22;2927;49.366;8.530;2022-07-25T15:41:10;35.00;99.90
5802;DHT22;2927;49.366;8.530;2022-07-25T15:43:37;35.60;99.90
5802;DHT22;2927;49.366;8.530;2022-07-25T15:46:02;36.00;99.90
5802;DHT22;2927;49.366;8.530;2022-07-25T15:48:28;36.00;99.90
5802;DHT22;2927;49.366;8.530;2022-07-25T15:50:53;36.00;99.90
5802;DHT22;2927;49.366;8.530;2022-07-25T15:53:20;36.30;99.90
5802;DHT22;2927;49.366;8.530;2022-07-25T15:55:46;36.10;99.90
5802;DHT22;2927;49.366;8.530;2022-07-25T15:58:11;36.10;99.90
5802;DHT22;2927;49.366;8.530;2022-07-25T16:00:37;36.30;99.90
5802;DHT22;2927;49.366;8.530;2022-07-25T16:03:04;36.70;99.90
5802;DHT22;2927;49.366;8.530;2022-07-25T16:05:29;36.40;99.90
5802;DHT22;2927;49.366;8.530;2022-07-25T16:07:55;36.20;99.90
5802;DHT22;2927;49.366;8.530;2022-07-25T16:10:22;36.00;99.90
5802;DHT22;2927;49.366;8.530;2022-07-25T16:12:47;35.80;99.90
5802;DHT22;2927;49.366;8.530;2022-07-25T16:15:13;35.60;99.90